Flinterborg — PHPH — position and weather

sailwx.info

Track history (hours):
 
Tides and Currents Weather Stations Pressure Air Temp Water Temp Dewpoint Dewpoint Depression Visibility Wind Speed Wind Dir Waves Ship Positions

Flinterborg

Last reported at 2017-Nov-17 14:30 UTC. Time now 2017-Nov-20 23:15 UTC.
Position N 49°48' W 003°21'.

Length 111 m; draft 6.4 m.

Type: Cargo ship. MMSI: 245433000.

Date/timePositionNaut miles runAvg speedWind from/ knotsBaromVisibWave heightAir tempDewpointWater temp
2017-Nov-17 14:30N 49°48' W 003°21'712.1
2017-Nov-17 13:54N 49°52' W 003°12'1013.1
2017-Nov-17 13:07N 49°57' W 002°58'113.5
2017-Nov-17 13:00N 49°58' W 002°56'9910.7
2017-Nov-17 03:45N 50°24' W 000°27'312.4
2017-Nov-17 03:30N 50°25' W 000°22'612.5
2017-Nov-17 03:00N 50°27' W 000°13'612.6
2017-Nov-17 02:30N 50°28' W 000°03'612.7
2017-Nov-17 02:00N 50°30' E 000°06'612.7
2017-Nov-17 01:30N 50°32' E 000°16'612.5
2017-Nov-17 01:00N 50°34' E 000°25'612.2
2017-Nov-17 00:30N 50°35' E 000°35'611.7
2017-Nov-17 00:00N 50°39' E 000°42'611.4
2017-Nov-16 23:30N 50°43' E 000°49'610.8
2017-Nov-16 23:00N 50°46' E 000°56'2110.2
2017-Nov-16 20:53N 51°01' E 001°20'411.0
2017-Nov-16 20:30N 51°03' E 001°25'612.3
2017-Nov-16 20:00N 51°07' E 001°33'713.2
2017-Nov-16 19:30N 51°11' E 001°41'713.1
2017-Nov-16 19:00N 51°17' E 001°46'713.5
2017-Nov-16 18:30N 51°23' E 001°51'612.7
2017-Nov-16 18:00N 51°28' E 001°58'612.2
2017-Nov-16 17:30N 51°32' E 002°04'611.6
2017-Nov-16 17:00N 51°37' E 002°11'202 9.2
2017-Nov-15 18:58N 53°31' E 006°46'4 9.3
2017-Nov-15 18:30N 53°28' E 006°51'4 9.1
2017-Nov-15 18:00N 53°25' E 006°56'4 9.0
2017-Nov-15 17:30N 53°21' E 006°59'2 3.7
2017-Nov-15 17:00N 53°19' E 006°59'2 3.3
2017-Nov-15 16:29N 53°20' E 006°56'0 0.0
2017-Nov-15 15:59N 53°20' E 006°56'0 0.0
2017-Nov-15 15:29N 53°20' E 006°56'0 0.0
2017-Nov-15 14:59N 53°20' E 006°56'0 0.0
2017-Nov-15 14:28N 53°20' E 006°56'0 0.0
2017-Nov-15 13:58N 53°20' E 006°56'0 0.0
2017-Nov-15 13:28N 53°20' E 006°56'0 0.0
2017-Nov-15 12:58N 53°20' E 006°56'0 0.0
2017-Nov-15 12:28N 53°20' E 006°56'0 0.0
2017-Nov-15 12:00N 53°20' E 006°56'0 0.0
2017-Nov-15 11:30N 53°20' E 006°56'0 0.0
2017-Nov-15 10:57N 53°20' E 006°56'0 0.0
2017-Nov-15 10:30N 53°20' E 006°56'0 0.0
2017-Nov-15 10:00N 53°20' E 006°56'0 0.0
2017-Nov-15 09:29N 53°20' E 006°56'0 0.0
2017-Nov-15 08:59N 53°20' E 006°56'0 0.0
2017-Nov-15 08:29N 53°20' E 006°56'0 0.0
2017-Nov-15 07:59N 53°20' E 006°56'0 0.2
2017-Nov-15 07:29N 53°20' E 006°56'0 0.0
2017-Nov-15 06:58N 53°20' E 006°56'0 0.0
2017-Nov-15 06:28N 53°20' E 006°56'0 0.0
2017-Nov-15 05:58N 53°20' E 006°56'0 0.0
2017-Nov-15 05:28N 53°20' E 006°56'0 0.0
2017-Nov-15 05:00N 53°20' E 006°56'0 0.0
2017-Nov-15 04:30N 53°20' E 006°56'0 0.0
2017-Nov-15 04:00N 53°20' E 006°56'0 0.0
2017-Nov-15 03:30N 53°20' E 006°56'0 0.0
2017-Nov-15 03:00N 53°20' E 006°56'0 0.0
2017-Nov-15 02:29N 53°20' E 006°56'0 0.0
2017-Nov-15 01:59N 53°20' E 006°56'0 0.0
2017-Nov-15 01:29N 53°20' E 006°56'0 0.0
2017-Nov-15 00:59N 53°20' E 006°56'0 0.0
2017-Nov-15 00:28N 53°20' E 006°56'0 0.0
2017-Nov-14 23:58N 53°20' E 006°56'0 0.0
2017-Nov-14 23:28N 53°20' E 006°56'0 0.0
2017-Nov-14 22:55N 53°20' E 006°56'0 0.0
2017-Nov-14 22:28N 53°20' E 006°56'0 0.0
2017-Nov-14 22:00N 53°20' E 006°56'0 0.0
2017-Nov-14 21:30N 53°20' E 006°56'0 0.0
2017-Nov-14 20:57N 53°20' E 006°56'0 0.0
2017-Nov-14 20:30N 53°20' E 006°56'0 0.0
2017-Nov-14 20:00N 53°20' E 006°56'0 0.0
2017-Nov-14 19:26N 53°20' E 006°56'0 0.0
2017-Nov-14 18:59N 53°20' E 006°56'0 0.0
2017-Nov-14 18:29N 53°20' E 006°56'0 0.0
2017-Nov-14 17:59N 53°20' E 006°56'0 0.0
2017-Nov-14 17:28N 53°20' E 006°56'0 0.0
2017-Nov-14 16:58N 53°20' E 006°56'0 0.0
2017-Nov-14 16:28N 53°20' E 006°56'0 0.1
2017-Nov-14 16:01N 53°20' E 006°56'2 4.5
2017-Nov-14 15:30N 53°20' E 007°00'714.0
2017-Nov-14 15:00N 53°26' E 006°55'713.1
2017-Nov-14 14:30N 53°31' E 006°47'9010.0
2017-Nov-14 05:34N 53°02' E 004°25'111.6
2017-Nov-14 05:28N 53°01' E 004°24'511.4
2017-Nov-14 05:00N 52°57' E 004°20'611.8
2017-Nov-14 04:30N 52°51' E 004°16'611.9
2017-Nov-14 04:00N 52°47' E 004°10'612.2
2017-Nov-14 03:30N 52°42' E 004°03'612.4
2017-Nov-14 03:00N 52°38' E 003°56'812.3
2017-Nov-14 02:19N 52°32' E 003°45'812.7
2017-Nov-14 01:41N 52°26' E 003°36'212.9
2017-Nov-14 01:30N 52°25' E 003°34'813.1
2017-Nov-14 00:52N 52°19' E 003°24'513.2
2017-Nov-14 00:30N 52°15' E 003°19'713.4
2017-Nov-14 00:00N 52°10' E 003°11'74 3.4
2017-Nov-13 01:52N 51°03' E 002°20'0 0.0
2017-Nov-13 01:04N 51°03' E 002°20'0 0.0
2017-Nov-13 00:37N 51°03' E 002°20'0 0.0
2017-Nov-13 00:28N 51°03' E 002°20'0 0.0
2017-Nov-12 23:45N 51°03' E 002°20'0 0.0
2017-Nov-12 23:27N 51°03' E 002°20'0 0.0
2017-Nov-12 22:21N 51°03' E 002°20'0 0.0
2017-Nov-12 21:17N 51°03' E 002°20'0 0.0
2017-Nov-12 20:59N 51°03' E 002°20'0 0.0
2017-Nov-12 20:29N 51°03' E 002°20'0 0.0
2017-Nov-12 19:59N 51°03' E 002°20'0 0.0
2017-Nov-12 19:29N 51°03' E 002°20'0 0.0
2017-Nov-12 18:55N 51°03' E 002°20'0 0.0
2017-Nov-12 18:28N 51°03' E 002°20'0 0.0
2017-Nov-12 17:43N 51°03' E 002°20'0 0.0
2017-Nov-12 17:19N 51°03' E 002°20'0 0.0
2017-Nov-12 17:00N 51°03' E 002°20'0 0.0
2017-Nov-12 16:30N 51°03' E 002°20'0 0.0
2017-Nov-12 16:00N 51°03' E 002°20'0 0.0
2017-Nov-12 15:06N 51°03' E 002°20'0 0.0
2017-Nov-12 14:54N 51°03' E 002°20'0 0.0
2017-Nov-12 14:29N 51°03' E 002°20'0 0.0
2017-Nov-12 13:59N 51°03' E 002°20'0 0.0
2017-Nov-12 13:08N 51°03' E 002°20'0 0.0
2017-Nov-12 12:56N 51°03' E 002°20'0 0.0
2017-Nov-12 11:43N 51°03' E 002°20'0 0.0
2017-Nov-12 11:28N 51°03' E 002°20'0 0.0
2017-Nov-12 10:58N 51°03' E 002°20'0 0.0
2017-Nov-12 10:28N 51°03' E 002°20'0 0.0
2017-Nov-12 09:57N 51°03' E 002°20'0 0.0
2017-Nov-12 09:21N 51°03' E 002°20'0 0.0
2017-Nov-12 09:00N 51°03' E 002°20'0 0.0
2017-Nov-12 08:30N 51°03' E 002°20'0 0.0
2017-Nov-12 07:54N 51°03' E 002°20'0 0.0
2017-Nov-12 07:26N 51°03' E 002°20'0 0.0
2017-Nov-12 04:43N 51°03' E 002°20'0 0.0
2017-Nov-12 04:28N 51°03' E 002°20'0 0.0
2017-Nov-12 03:58N 51°03' E 002°20'0 0.0
2017-Nov-12 03:31N 51°03' E 002°20'0 0.0
2017-Nov-12 02:48N 51°03' E 002°20'0 0.0
2017-Nov-12 02:18N 51°03' E 002°20'0 0.0
2017-Nov-12 02:00N 51°03' E 002°20'0 0.0
2017-Nov-12 01:12N 51°03' E 002°20'0 0.0
2017-Nov-12 01:00N 51°03' E 002°20'0 0.0
2017-Nov-12 00:29N 51°03' E 002°20'0 0.0
2017-Nov-11 23:59N 51°03' E 002°20'0 0.0
2017-Nov-11 23:29N 51°03' E 002°20'0 0.0
2017-Nov-11 21:40N 51°03' E 002°20'0 0.0
2017-Nov-11 21:28N 51°03' E 002°20'0 0.0
2017-Nov-11 20:58N 51°03' E 002°20'0 0.0
2017-Nov-11 20:25N 51°03' E 002°20'0 0.0
2017-Nov-11 20:00N 51°03' E 002°20'0 0.0
2017-Nov-11 19:30N 51°03' E 002°20'0 0.0
2017-Nov-11 18:51N 51°03' E 002°20'0 0.0
2017-Nov-11 17:44N 51°03' E 002°20'0 0.0
2017-Nov-11 17:29N 51°03' E 002°20'0 0.0
2017-Nov-11 16:50N 51°03' E 002°20'0 0.0
2017-Nov-11 16:23N 51°03' E 002°20'0 0.0
2017-Nov-11 15:59N 51°03' E 002°20'0 0.0
2017-Nov-11 15:28N 51°03' E 002°20'0 0.0
2017-Nov-11 14:46N 51°03' E 002°20'0 0.0
2017-Nov-11 14:25N 51°03' E 002°20'0 0.0
2017-Nov-11 13:03N 51°03' E 002°20'0 0.0
2017-Nov-11 13:00N 51°03' E 002°20'0 0.0
2017-Nov-11 12:27N 51°03' E 002°20'0 0.0
2017-Nov-11 12:00N 51°03' E 002°20'0 0.0
2017-Nov-11 11:29N 51°03' E 002°20'0 0.0
2017-Nov-11 10:59N 51°03' E 002°20'0 0.0
2017-Nov-11 10:29N 51°03' E 002°20'0 0.0
2017-Nov-11 09:59N 51°03' E 002°20'0 0.0
2017-Nov-11 09:29N 51°03' E 002°20'0 0.0
2017-Nov-11 08:58N 51°03' E 002°20'0 0.0
2017-Nov-11 08:13N 51°03' E 002°20'0 0.0
2017-Nov-11 07:58N 51°03' E 002°20'0 0.0
2017-Nov-11 07:28N 51°03' E 002°20'0 0.0
2017-Nov-11 06:58N 51°03' E 002°20'0 0.0
2017-Nov-11 06:27N 51°03' E 002°20'0 0.0
2017-Nov-11 05:45N 51°03' E 002°20'0 0.0
2017-Nov-11 05:27N 51°03' E 002°20'0 0.0
2017-Nov-11 04:38N 51°03' E 002°20'0 0.0
2017-Nov-11 04:26N 51°03' E 002°20'0 0.0
2017-Nov-11 03:56N 51°03' E 002°20'0 0.0
2017-Nov-11 03:29N 51°03' E 002°20'0 0.0
2017-Nov-11 02:56N 51°03' E 002°20'0 0.0
2017-Nov-11 02:26N 51°03' E 002°20'0 0.0
2017-Nov-11 01:52N 51°03' E 002°20'0 0.0
2017-Nov-11 01:16N 51°03' E 002°20'0 0.0
2017-Nov-11 00:58N 51°03' E 002°20'0 0.0
2017-Nov-10 23:42N 51°03' E 002°20'0 0.0
2017-Nov-10 23:27N 51°03' E 002°20'0 0.0
2017-Nov-10 22:54N 51°03' E 002°20'0 0.0
2017-Nov-10 22:30N 51°03' E 002°20'0 0.0
2017-Nov-10 21:54N 51°03' E 002°20'0 0.0
2017-Nov-10 21:26N 51°03' E 002°20'0 0.0
2017-Nov-10 20:56N 51°03' E 002°20'0 0.0
2017-Nov-10 20:29N 51°03' E 002°20'0 0.0
2017-Nov-10 19:53N 51°03' E 002°20'0 0.0
2017-Nov-10 19:29N 51°03' E 002°20'0 0.0
2017-Nov-10 18:59N 51°03' E 002°20'0 0.0
2017-Nov-10 18:29N 51°03' E 002°20'0 0.0
2017-Nov-10 17:59N 51°03' E 002°20'0 0.0
2017-Nov-10 17:28N 51°03' E 002°20'0 0.0
2017-Nov-10 15:49N 51°03' E 002°20'0 0.0
2017-Nov-10 15:27N 51°03' E 002°20'0 0.0
2017-Nov-10 15:00N 51°03' E 002°20'0 0.0
2017-Nov-10 14:30N 51°03' E 002°20'0 0.0
2017-Nov-10 13:21N 51°03' E 002°20'0 0.0
2017-Nov-10 12:50N 51°03' E 002°20'0 0.0
2017-Nov-10 11:44N 51°03' E 002°20'0 0.0
2017-Nov-10 11:26N 51°03' E 002°20'0 0.0
2017-Nov-10 10:59N 51°03' E 002°20'0 0.0
2017-Nov-10 10:04N 51°03' E 002°20'0 0.0
2017-Nov-10 09:58N 51°03' E 002°20'0 0.0
2017-Nov-10 09:25N 51°03' E 002°20'0 0.0
2017-Nov-10 08:52N 51°03' E 002°20'0 0.0
2017-Nov-10 07:24N 51°03' E 002°20'0 0.0
2017-Nov-10 06:36N 51°03' E 002°20'0 0.0
2017-Nov-10 06:30N 51°03' E 002°20'0 0.0
2017-Nov-10 05:59N 51°03' E 002°20'0 0.0
2017-Nov-10 05:08N 51°03' E 002°20'0 0.0
2017-Nov-10 04:59N 51°03' E 002°20'0 0.0
2017-Nov-10 04:29N 51°03' E 002°20'0 0.0
2017-Nov-10 03:54N 51°03' E 002°20'0 0.0
2017-Nov-10 03:29N 51°03' E 002°20'0 0.0
2017-Nov-10 02:28N 51°03' E 002°20'0 0.0
2017-Nov-10 01:40N 51°03' E 002°20'0 0.0
2017-Nov-10 00:55N 51°03' E 002°20'0 0.0
2017-Nov-10 00:04N 51°03' E 002°20'0 0.0
2017-Nov-09 23:57N 51°03' E 002°20'0 0.9
2017-Nov-09 23:27N 51°03' E 002°21'0 0.4
2017-Nov-09 22:59N 51°03' E 002°21'4 7.7
2017-Nov-09 22:30N 51°04' E 002°15'5 9.4
2017-Nov-09 21:59N 51°03' E 002°07'5 9.3
2017-Nov-09 21:28N 51°02' E 001°60'4 9.1
2017-Nov-09 21:00N 51°03' E 001°53'1 2.1
2017-Nov-09 20:28N 51°04' E 001°51'0 0.0
2017-Nov-09 19:58N 51°04' E 001°51'0 0.0
2017-Nov-09 19:28N 51°04' E 001°51'0 0.0
2017-Nov-09 19:00N 51°04' E 001°51'0 0.0
2017-Nov-09 18:30N 51°04' E 001°51'0 0.0
2017-Nov-09 18:00N 51°04' E 001°51'0 0.0
2017-Nov-09 17:27N 51°04' E 001°51'0 0.0
2017-Nov-09 17:00N 51°04' E 001°51'0 0.0
2017-Nov-09 16:30N 51°04' E 001°51'0 0.0
2017-Nov-09 15:58N 51°04' E 001°51'0 0.1
2017-Nov-09 15:28N 51°04' E 001°51'0 0.1
2017-Nov-09 14:58N 51°04' E 001°51'0 0.1
2017-Nov-09 14:28N 51°04' E 001°51'0 0.0
2017-Nov-09 13:52N 51°03' E 001°51'0 0.5
2017-Nov-09 13:30N 51°04' E 001°51'3 5.8
2017-Nov-09 13:00N 51°03' E 001°47'124 9.8
2017-Nov-09 00:15N 50°06' W 001°08'413.7
2017-Nov-08 23:56N 50°05' W 001°14'613.9
2017-Nov-08 23:30N 50°04' W 001°23'714.2
2017-Nov-08 23:00N 50°02' W 001°34'714.3
2017-Nov-08 22:30N 50°01' W 001°45'  
Track history (hours):
 
Tides and Currents Weather Stations Pressure Air Temp Water Temp Dewpoint Dewpoint Depression Visibility Wind Speed Wind Dir Waves Ship Positions

Flinterborg

Last reported at 2017-Nov-17 14:30 UTC. Time now 2017-Nov-20 23:15 UTC.
Position N 49°48' W 003°21'.

Length 111 m; draft 6.4 m.

Type: Cargo ship. MMSI: 245433000.

Date/timePositionNaut miles runAvg speedWind from/ knotsBaromVisibWave heightAir tempDewpointWater temp
2017-Nov-17 14:30N 49°48' W 003°21'712.1
2017-Nov-17 13:54N 49°52' W 003°12'1013.1
2017-Nov-17 13:07N 49°57' W 002°58'113.5
2017-Nov-17 13:00N 49°58' W 002°56'9910.7
2017-Nov-17 03:45N 50°24' W 000°27'312.4
2017-Nov-17 03:30N 50°25' W 000°22'612.5
2017-Nov-17 03:00N 50°27' W 000°13'612.6
2017-Nov-17 02:30N 50°28' W 000°03'612.7
2017-Nov-17 02:00N 50°30' E 000°06'612.7
2017-Nov-17 01:30N 50°32' E 000°16'612.5
2017-Nov-17 01:00N 50°34' E 000°25'612.2
2017-Nov-17 00:30N 50°35' E 000°35'611.7
2017-Nov-17 00:00N 50°39' E 000°42'611.4
2017-Nov-16 23:30N 50°43' E 000°49'610.8
2017-Nov-16 23:00N 50°46' E 000°56'2110.2
2017-Nov-16 20:53N 51°01' E 001°20'411.0
2017-Nov-16 20:30N 51°03' E 001°25'612.3
2017-Nov-16 20:00N 51°07' E 001°33'713.2
2017-Nov-16 19:30N 51°11' E 001°41'713.1
2017-Nov-16 19:00N 51°17' E 001°46'713.5
2017-Nov-16 18:30N 51°23' E 001°51'612.7
2017-Nov-16 18:00N 51°28' E 001°58'612.2
2017-Nov-16 17:30N 51°32' E 002°04'611.6
2017-Nov-16 17:00N 51°37' E 002°11'202 9.2
2017-Nov-15 18:58N 53°31' E 006°46'4 9.3
2017-Nov-15 18:30N 53°28' E 006°51'4 9.1
2017-Nov-15 18:00N 53°25' E 006°56'4 9.0
2017-Nov-15 17:30N 53°21' E 006°59'2 3.7
2017-Nov-15 17:00N 53°19' E 006°59'2 3.3
2017-Nov-15 16:29N 53°20' E 006°56'0 0.0
2017-Nov-15 15:59N 53°20' E 006°56'0 0.0
2017-Nov-15 15:29N 53°20' E 006°56'0 0.0
2017-Nov-15 14:59N 53°20' E 006°56'0 0.0
2017-Nov-15 14:28N 53°20' E 006°56'0 0.0
2017-Nov-15 13:58N 53°20' E 006°56'0 0.0
2017-Nov-15 13:28N 53°20' E 006°56'0 0.0
2017-Nov-15 12:58N 53°20' E 006°56'0 0.0
2017-Nov-15 12:28N 53°20' E 006°56'0 0.0
2017-Nov-15 12:00N 53°20' E 006°56'0 0.0
2017-Nov-15 11:30N 53°20' E 006°56'0 0.0
2017-Nov-15 10:57N 53°20' E 006°56'0 0.0
2017-Nov-15 10:30N 53°20' E 006°56'0 0.0
2017-Nov-15 10:00N 53°20' E 006°56'0 0.0
2017-Nov-15 09:29N 53°20' E 006°56'0 0.0
2017-Nov-15 08:59N 53°20' E 006°56'0 0.0
2017-Nov-15 08:29N 53°20' E 006°56'0 0.0
2017-Nov-15 07:59N 53°20' E 006°56'0 0.2
2017-Nov-15 07:29N 53°20' E 006°56'0 0.0
2017-Nov-15 06:58N 53°20' E 006°56'0 0.0
2017-Nov-15 06:28N 53°20' E 006°56'0 0.0
2017-Nov-15 05:58N 53°20' E 006°56'0 0.0
2017-Nov-15 05:28N 53°20' E 006°56'0 0.0
2017-Nov-15 05:00N 53°20' E 006°56'0 0.0
2017-Nov-15 04:30N 53°20' E 006°56'0 0.0
2017-Nov-15 04:00N 53°20' E 006°56'0 0.0
2017-Nov-15 03:30N 53°20' E 006°56'0 0.0
2017-Nov-15 03:00N 53°20' E 006°56'0 0.0
2017-Nov-15 02:29N 53°20' E 006°56'0 0.0
2017-Nov-15 01:59N 53°20' E 006°56'0 0.0
2017-Nov-15 01:29N 53°20' E 006°56'0 0.0
2017-Nov-15 00:59N 53°20' E 006°56'0 0.0
2017-Nov-15 00:28N 53°20' E 006°56'0 0.0
2017-Nov-14 23:58N 53°20' E 006°56'0 0.0
2017-Nov-14 23:28N 53°20' E 006°56'0 0.0
2017-Nov-14 22:55N 53°20' E 006°56'0 0.0
2017-Nov-14 22:28N 53°20' E 006°56'0 0.0
2017-Nov-14 22:00N 53°20' E 006°56'0 0.0
2017-Nov-14 21:30N 53°20' E 006°56'0 0.0
2017-Nov-14 20:57N 53°20' E 006°56'0 0.0
2017-Nov-14 20:30N 53°20' E 006°56'0 0.0
2017-Nov-14 20:00N 53°20' E 006°56'0 0.0
2017-Nov-14 19:26N 53°20' E 006°56'0 0.0
2017-Nov-14 18:59N 53°20' E 006°56'0 0.0
2017-Nov-14 18:29N 53°20' E 006°56'0 0.0
2017-Nov-14 17:59N 53°20' E 006°56'0 0.0
2017-Nov-14 17:28N 53°20' E 006°56'0 0.0
2017-Nov-14 16:58N 53°20' E 006°56'0 0.0
2017-Nov-14 16:28N 53°20' E 006°56'0 0.1
2017-Nov-14 16:01N 53°20' E 006°56'2 4.5
2017-Nov-14 15:30N 53°20' E 007°00'714.0
2017-Nov-14 15:00N 53°26' E 006°55'713.1
2017-Nov-14 14:30N 53°31' E 006°47'9010.0
2017-Nov-14 05:34N 53°02' E 004°25'111.6
2017-Nov-14 05:28N 53°01' E 004°24'511.4
2017-Nov-14 05:00N 52°57' E 004°20'611.8
2017-Nov-14 04:30N 52°51' E 004°16'611.9
2017-Nov-14 04:00N 52°47' E 004°10'612.2
2017-Nov-14 03:30N 52°42' E 004°03'612.4
2017-Nov-14 03:00N 52°38' E 003°56'812.3
2017-Nov-14 02:19N 52°32' E 003°45'812.7
2017-Nov-14 01:41N 52°26' E 003°36'212.9
2017-Nov-14 01:30N 52°25' E 003°34'813.1
2017-Nov-14 00:52N 52°19' E 003°24'513.2
2017-Nov-14 00:30N 52°15' E 003°19'713.4
2017-Nov-14 00:00N 52°10' E 003°11'74 3.4
2017-Nov-13 01:52N 51°03' E 002°20'0 0.0
2017-Nov-13 01:04N 51°03' E 002°20'0 0.0
2017-Nov-13 00:37N 51°03' E 002°20'0 0.0
2017-Nov-13 00:28N 51°03' E 002°20'0 0.0
2017-Nov-12 23:45N 51°03' E 002°20'0 0.0
2017-Nov-12 23:27N 51°03' E 002°20'0 0.0
2017-Nov-12 22:21N 51°03' E 002°20'0 0.0
2017-Nov-12 21:17N 51°03' E 002°20'0 0.0
2017-Nov-12 20:59N 51°03' E 002°20'0 0.0
2017-Nov-12 20:29N 51°03' E 002°20'0 0.0
2017-Nov-12 19:59N 51°03' E 002°20'0 0.0
2017-Nov-12 19:29N 51°03' E 002°20'0 0.0
2017-Nov-12 18:55N 51°03' E 002°20'0 0.0
2017-Nov-12 18:28N 51°03' E 002°20'0 0.0
2017-Nov-12 17:43N 51°03' E 002°20'0 0.0
2017-Nov-12 17:19N 51°03' E 002°20'0 0.0
2017-Nov-12 17:00N 51°03' E 002°20'0 0.0
2017-Nov-12 16:30N 51°03' E 002°20'0 0.0
2017-Nov-12 16:00N 51°03' E 002°20'0 0.0
2017-Nov-12 15:06N 51°03' E 002°20'0 0.0
2017-Nov-12 14:54N 51°03' E 002°20'0 0.0
2017-Nov-12 14:29N 51°03' E 002°20'0 0.0
2017-Nov-12 13:59N 51°03' E 002°20'0 0.0
2017-Nov-12 13:08N 51°03' E 002°20'0 0.0
2017-Nov-12 12:56N 51°03' E 002°20'0 0.0
2017-Nov-12 11:43N 51°03' E 002°20'0 0.0
2017-Nov-12 11:28N 51°03' E 002°20'0 0.0
2017-Nov-12 10:58N 51°03' E 002°20'0 0.0
2017-Nov-12 10:28N 51°03' E 002°20'0 0.0
2017-Nov-12 09:57N 51°03' E 002°20'0 0.0
2017-Nov-12 09:21N 51°03' E 002°20'0 0.0
2017-Nov-12 09:00N 51°03' E 002°20'0 0.0
2017-Nov-12 08:30N 51°03' E 002°20'0 0.0
2017-Nov-12 07:54N 51°03' E 002°20'0 0.0
2017-Nov-12 07:26N 51°03' E 002°20'0 0.0
2017-Nov-12 04:43N 51°03' E 002°20'0 0.0
2017-Nov-12 04:28N 51°03' E 002°20'0 0.0
2017-Nov-12 03:58N 51°03' E 002°20'0 0.0
2017-Nov-12 03:31N 51°03' E 002°20'0 0.0
2017-Nov-12 02:48N 51°03' E 002°20'0 0.0
2017-Nov-12 02:18N 51°03' E 002°20'0 0.0
2017-Nov-12 02:00N 51°03' E 002°20'0 0.0
2017-Nov-12 01:12N 51°03' E 002°20'0 0.0
2017-Nov-12 01:00N 51°03' E 002°20'0 0.0
2017-Nov-12 00:29N 51°03' E 002°20'0 0.0
2017-Nov-11 23:59N 51°03' E 002°20'0 0.0
2017-Nov-11 23:29N 51°03' E 002°20'0 0.0
2017-Nov-11 21:40N 51°03' E 002°20'0 0.0
2017-Nov-11 21:28N 51°03' E 002°20'0 0.0
2017-Nov-11 20:58N 51°03' E 002°20'0 0.0
2017-Nov-11 20:25N 51°03' E 002°20'0 0.0
2017-Nov-11 20:00N 51°03' E 002°20'0 0.0
2017-Nov-11 19:30N 51°03' E 002°20'0 0.0
2017-Nov-11 18:51N 51°03' E 002°20'0 0.0
2017-Nov-11 17:44N 51°03' E 002°20'0 0.0
2017-Nov-11 17:29N 51°03' E 002°20'0 0.0
2017-Nov-11 16:50N 51°03' E 002°20'0 0.0
2017-Nov-11 16:23N 51°03' E 002°20'0 0.0
2017-Nov-11 15:59N 51°03' E 002°20'0 0.0
2017-Nov-11 15:28N 51°03' E 002°20'0 0.0
2017-Nov-11 14:46N 51°03' E 002°20'0 0.0
2017-Nov-11 14:25N 51°03' E 002°20'0 0.0
2017-Nov-11 13:03N 51°03' E 002°20'0 0.0
2017-Nov-11 13:00N 51°03' E 002°20'0 0.0
2017-Nov-11 12:27N 51°03' E 002°20'0 0.0
2017-Nov-11 12:00N 51°03' E 002°20'0 0.0
2017-Nov-11 11:29N 51°03' E 002°20'0 0.0
2017-Nov-11 10:59N 51°03' E 002°20'0 0.0
2017-Nov-11 10:29N 51°03' E 002°20'0 0.0
2017-Nov-11 09:59N 51°03' E 002°20'0 0.0
2017-Nov-11 09:29N 51°03' E 002°20'0 0.0
2017-Nov-11 08:58N 51°03' E 002°20'0 0.0
2017-Nov-11 08:13N 51°03' E 002°20'0 0.0
2017-Nov-11 07:58N 51°03' E 002°20'0 0.0
2017-Nov-11 07:28N 51°03' E 002°20'0 0.0
2017-Nov-11 06:58N 51°03' E 002°20'0 0.0
2017-Nov-11 06:27N 51°03' E 002°20'0 0.0
2017-Nov-11 05:45N 51°03' E 002°20'0 0.0
2017-Nov-11 05:27N 51°03' E 002°20'0 0.0
2017-Nov-11 04:38N 51°03' E 002°20'0 0.0
2017-Nov-11 04:26N 51°03' E 002°20'0 0.0
2017-Nov-11 03:56N 51°03' E 002°20'0 0.0
2017-Nov-11 03:29N 51°03' E 002°20'0 0.0
2017-Nov-11 02:56N 51°03' E 002°20'0 0.0
2017-Nov-11 02:26N 51°03' E 002°20'0 0.0
2017-Nov-11 01:52N 51°03' E 002°20'0 0.0
2017-Nov-11 01:16N 51°03' E 002°20'0 0.0
2017-Nov-11 00:58N 51°03' E 002°20'0 0.0
2017-Nov-10 23:42N 51°03' E 002°20'0 0.0
2017-Nov-10 23:27N 51°03' E 002°20'0 0.0
2017-Nov-10 22:54N 51°03' E 002°20'0 0.0
2017-Nov-10 22:30N 51°03' E 002°20'0 0.0
2017-Nov-10 21:54N 51°03' E 002°20'0 0.0
2017-Nov-10 21:26N 51°03' E 002°20'0 0.0
2017-Nov-10 20:56N 51°03' E 002°20'0 0.0
2017-Nov-10 20:29N 51°03' E 002°20'0 0.0
2017-Nov-10 19:53N 51°03' E 002°20'0 0.0
2017-Nov-10 19:29N 51°03' E 002°20'0 0.0
2017-Nov-10 18:59N 51°03' E 002°20'0 0.0
2017-Nov-10 18:29N 51°03' E 002°20'0 0.0
2017-Nov-10 17:59N 51°03' E 002°20'0 0.0
2017-Nov-10 17:28N 51°03' E 002°20'0 0.0
2017-Nov-10 15:49N 51°03' E 002°20'0 0.0
2017-Nov-10 15:27N 51°03' E 002°20'0 0.0
2017-Nov-10 15:00N 51°03' E 002°20'0 0.0
2017-Nov-10 14:30N 51°03' E 002°20'0 0.0
2017-Nov-10 13:21N 51°03' E 002°20'0 0.0
2017-Nov-10 12:50N 51°03' E 002°20'0 0.0
2017-Nov-10 11:44N 51°03' E 002°20'0 0.0
2017-Nov-10 11:26N 51°03' E 002°20'0 0.0
2017-Nov-10 10:59N 51°03' E 002°20'0 0.0
2017-Nov-10 10:04N 51°03' E 002°20'0 0.0
2017-Nov-10 09:58N 51°03' E 002°20'0 0.0
2017-Nov-10 09:25N 51°03' E 002°20'0 0.0
2017-Nov-10 08:52N 51°03' E 002°20'0 0.0
2017-Nov-10 07:24N 51°03' E 002°20'0 0.0
2017-Nov-10 06:36N 51°03' E 002°20'0 0.0
2017-Nov-10 06:30N 51°03' E 002°20'0 0.0
2017-Nov-10 05:59N 51°03' E 002°20'0 0.0
2017-Nov-10 05:08N 51°03' E 002°20'0 0.0
2017-Nov-10 04:59N 51°03' E 002°20'0 0.0
2017-Nov-10 04:29N 51°03' E 002°20'0 0.0
2017-Nov-10 03:54N 51°03' E 002°20'0 0.0
2017-Nov-10 03:29N 51°03' E 002°20'0 0.0
2017-Nov-10 02:28N 51°03' E 002°20'0 0.0
2017-Nov-10 01:40N 51°03' E 002°20'0 0.0
2017-Nov-10 00:55N 51°03' E 002°20'0 0.0
2017-Nov-10 00:04N 51°03' E 002°20'0 0.0
2017-Nov-09 23:57N 51°03' E 002°20'0 0.9
2017-Nov-09 23:27N 51°03' E 002°21'0 0.4
2017-Nov-09 22:59N 51°03' E 002°21'4 7.7
2017-Nov-09 22:30N 51°04' E 002°15'5 9.4
2017-Nov-09 21:59N 51°03' E 002°07'5 9.3
2017-Nov-09 21:28N 51°02' E 001°60'4 9.1
2017-Nov-09 21:00N 51°03' E 001°53'1 2.1
2017-Nov-09 20:28N 51°04' E 001°51'0 0.0
2017-Nov-09 19:58N 51°04' E 001°51'0 0.0
2017-Nov-09 19:28N 51°04' E 001°51'0 0.0
2017-Nov-09 19:00N 51°04' E 001°51'0 0.0
2017-Nov-09 18:30N 51°04' E 001°51'0 0.0
2017-Nov-09 18:00N 51°04' E 001°51'0 0.0
2017-Nov-09 17:27N 51°04' E 001°51'0 0.0
2017-Nov-09 17:00N 51°04' E 001°51'0 0.0
2017-Nov-09 16:30N 51°04' E 001°51'0 0.0
2017-Nov-09 15:58N 51°04' E 001°51'0 0.1
2017-Nov-09 15:28N 51°04' E 001°51'0 0.1
2017-Nov-09 14:58N 51°04' E 001°51'0 0.1
2017-Nov-09 14:28N 51°04' E 001°51'0 0.0
2017-Nov-09 13:52N 51°03' E 001°51'0 0.5
2017-Nov-09 13:30N 51°04' E 001°51'3 5.8
2017-Nov-09 13:00N 51°03' E 001°47'124 9.8
2017-Nov-09 00:15N 50°06' W 001°08'413.7
2017-Nov-08 23:56N 50°05' W 001°14'613.9
2017-Nov-08 23:30N 50°04' W 001°23'714.2
2017-Nov-08 23:00N 50°02' W 001°34'714.3
2017-Nov-08 22:30N 50°01' W 001°45'  

Dump ship's entire track history